sensor_id;sensor_type;location;lat;lon;timestamp;P1;durP1;ratioP1;P2;durP2;ratioP2
13090;SDS011;6611;52.604;13.438;2023-08-06T00:01:36;6.17;;;5.57;;
13090;SDS011;6611;52.604;13.438;2023-08-06T00:06:38;5.73;;;5.13;;
13090;SDS011;6611;52.604;13.438;2023-08-06T00:11:41;5.07;;;4.67;;
13090;SDS011;6611;52.604;13.438;2023-08-06T00:16:44;6.37;;;4.97;;
13090;SDS011;6611;52.604;13.438;2023-08-06T00:21:45;5.63;;;5.03;;
13090;SDS011;6611;52.604;13.438;2023-08-06T00:26:48;7.67;;;5.50;;
13090;SDS011;6611;52.604;13.438;2023-08-06T00:31:50;5.57;;;4.70;;
13090;SDS011;6611;52.604;13.438;2023-08-06T00:36:52;8.00;;;5.83;;
13090;SDS011;6611;52.604;13.438;2023-08-06T00:41:56;7.40;;;5.63;;
13090;SDS011;6611;52.604;13.438;2023-08-06T00:46:58;7.73;;;5.63;;
13090;SDS011;6611;52.604;13.438;2023-08-06T00:52:00;6.47;;;5.83;;
13090;SDS011;6611;52.604;13.438;2023-08-06T00:57:03;6.67;;;6.07;;
13090;SDS011;6611;52.604;13.438;2023-08-06T01:02:08;6.90;;;6.03;;
13090;SDS011;6611;52.604;13.438;2023-08-06T01:07:12;8.40;;;6.67;;
13090;SDS011;6611;52.604;13.438;2023-08-06T01:12:24;6.77;;;6.03;;
13090;SDS011;6611;52.604;13.438;2023-08-06T01:17:35;8.77;;;6.27;;
13090;SDS011;6611;52.604;13.438;2023-08-06T01:22:38;7.17;;;6.47;;
13090;SDS011;6611;52.604;13.438;2023-08-06T01:27:42;7.30;;;6.60;;
13090;SDS011;6611;52.604;13.438;2023-08-06T01:32:49;8.50;;;6.80;;
13090;SDS011;6611;52.604;13.438;2023-08-06T01:37:55;7.80;;;7.10;;
13090;SDS011;6611;52.604;13.438;2023-08-06T01:42:57;7.30;;;6.60;;
13090;SDS011;6611;52.604;13.438;2023-08-06T01:47:59;7.30;;;6.70;;
13090;SDS011;6611;52.604;13.438;2023-08-06T01:53:02;7.60;;;6.83;;
13090;SDS011;6611;52.604;13.438;2023-08-06T01:58:03;8.40;;;7.60;;
13090;SDS011;6611;52.604;13.438;2023-08-06T02:03:05;9.50;;;7.87;;
13090;SDS011;6611;52.604;13.438;2023-08-06T02:08:08;8.87;;;7.97;;
13090;SDS011;6611;52.604;13.438;2023-08-06T02:13:09;7.73;;;6.93;;
13090;SDS011;6611;52.604;13.438;2023-08-06T02:18:11;9.10;;;8.20;;
13090;SDS011;6611;52.604;13.438;2023-08-06T02:23:14;8.30;;;7.43;;
13090;SDS011;6611;52.604;13.438;2023-08-06T02:28:16;8.60;;;7.70;;
13090;SDS011;6611;52.604;13.438;2023-08-06T02:33:17;8.50;;;7.70;;
13090;SDS011;6611;52.604;13.438;2023-08-06T02:38:20;8.63;;;7.03;;
13090;SDS011;6611;52.604;13.438;2023-08-06T02:43:22;8.30;;;7.43;;
13090;SDS011;6611;52.604;13.438;2023-08-06T02:48:24;8.20;;;7.40;;
13090;SDS011;6611;52.604;13.438;2023-08-06T02:53:27;8.10;;;7.30;;
13090;SDS011;6611;52.604;13.438;2023-08-06T02:58:28;8.73;;;7.90;;
13090;SDS011;6611;52.604;13.438;2023-08-06T03:03:30;8.00;;;7.20;;
13090;SDS011;6611;52.604;13.438;2023-08-06T03:08:33;8.57;;;7.77;;
13090;SDS011;6611;52.604;13.438;2023-08-06T03:13:35;8.93;;;8.03;;
13090;SDS011;6611;52.604;13.438;2023-08-06T03:18:37;8.57;;;7.63;;
13090;SDS011;6611;52.604;13.438;2023-08-06T03:23:40;8.47;;;7.60;;
13090;SDS011;6611;52.604;13.438;2023-08-06T03:28:42;8.90;;;8.00;;
13090;SDS011;6611;52.604;13.438;2023-08-06T03:33:44;8.57;;;7.73;;
13090;SDS011;6611;52.604;13.438;2023-08-06T03:38:47;9.00;;;8.10;;
13090;SDS011;6611;52.604;13.438;2023-08-06T03:43:49;8.67;;;7.87;;
13090;SDS011;6611;52.604;13.438;2023-08-06T03:48:50;8.80;;;7.90;;
13090;SDS011;6611;52.604;13.438;2023-08-06T03:53:53;9.70;;;8.70;;
13090;SDS011;6611;52.604;13.438;2023-08-06T03:58:55;8.97;;;8.07;;
13090;SDS011;6611;52.604;13.438;2023-08-06T04:03:57;8.27;;;7.47;;
13090;SDS011;6611;52.604;13.438;2023-08-06T04:09:00;8.73;;;7.73;;
13090;SDS011;6611;52.604;13.438;2023-08-06T04:14:01;8.43;;;7.63;;
13090;SDS011;6611;52.604;13.438;2023-08-06T04:19:03;8.70;;;7.87;;
13090;SDS011;6611;52.604;13.438;2023-08-06T04:24:06;9.20;;;8.17;;
13090;SDS011;6611;52.604;13.438;2023-08-06T04:29:07;8.37;;;7.57;;
13090;SDS011;6611;52.604;13.438;2023-08-06T04:34:09;9.10;;;8.30;;
13090;SDS011;6611;52.604;13.438;2023-08-06T04:39:13;9.57;;;8.63;;
13090;SDS011;6611;52.604;13.438;2023-08-06T04:44:14;8.83;;;7.93;;
13090;SDS011;6611;52.604;13.438;2023-08-06T04:49:16;9.40;;;8.37;;
13090;SDS011;6611;52.604;13.438;2023-08-06T04:54:19;9.33;;;8.37;;
13090;SDS011;6611;52.604;13.438;2023-08-06T04:59:21;9.70;;;8.40;;
13090;SDS011;6611;52.604;13.438;2023-08-06T05:04:22;9.00;;;8.03;;
13090;SDS011;6611;52.604;13.438;2023-08-06T05:09:25;9.60;;;8.27;;
13090;SDS011;6611;52.604;13.438;2023-08-06T05:14:27;9.20;;;8.33;;
13090;SDS011;6611;52.604;13.438;2023-08-06T05:19:29;9.40;;;8.53;;
13090;SDS011;6611;52.604;13.438;2023-08-06T05:24:32;9.20;;;8.30;;
13090;SDS011;6611;52.604;13.438;2023-08-06T05:29:33;9.17;;;8.27;;
13090;SDS011;6611;52.604;13.438;2023-08-06T05:34:35;8.93;;;8.00;;
13090;SDS011;6611;52.604;13.438;2023-08-06T05:39:38;9.87;;;8.90;;
13090;SDS011;6611;52.604;13.438;2023-08-06T05:44:40;9.50;;;8.53;;
13090;SDS011;6611;52.604;13.438;2023-08-06T05:49:41;9.00;;;8.10;;
13090;SDS011;6611;52.604;13.438;2023-08-06T05:54:44;9.10;;;8.20;;
13090;SDS011;6611;52.604;13.438;2023-08-06T05:59:46;9.67;;;8.13;;
13090;SDS011;6611;52.604;13.438;2023-08-06T06:04:48;8.80;;;7.87;;
13090;SDS011;6611;52.604;13.438;2023-08-06T06:09:50;8.90;;;7.87;;
13090;SDS011;6611;52.604;13.438;2023-08-06T06:14:52;8.57;;;7.70;;
13090;SDS011;6611;52.604;13.438;2023-08-06T06:19:54;7.90;;;7.17;;
13090;SDS011;6611;52.604;13.438;2023-08-06T06:24:57;8.17;;;7.37;;
13090;SDS011;6611;52.604;13.438;2023-08-06T06:29:58;8.67;;;7.10;;
13090;SDS011;6611;52.604;13.438;2023-08-06T06:35:00;7.67;;;6.87;;
13090;SDS011;6611;52.604;13.438;2023-08-06T06:40:03;8.50;;;7.70;;
13090;SDS011;6611;52.604;13.438;2023-08-06T06:45:06;8.30;;;7.50;;
13090;SDS011;6611;52.604;13.438;2023-08-06T06:50:09;7.63;;;6.70;;
13090;SDS011;6611;52.604;13.438;2023-08-06T06:55:12;7.53;;;6.83;;
13090;SDS011;6611;52.604;13.438;2023-08-06T07:00:14;8.27;;;7.47;;
13090;SDS011;6611;52.604;13.438;2023-08-06T07:05:15;7.37;;;6.67;;
13090;SDS011;6611;52.604;13.438;2023-08-06T07:10:18;6.77;;;6.17;;
13090;SDS011;6611;52.604;13.438;2023-08-06T07:15:20;6.90;;;6.20;;
13090;SDS011;6611;52.604;13.438;2023-08-06T07:20:22;6.77;;;6.17;;
13090;SDS011;6611;52.604;13.438;2023-08-06T07:25:25;6.73;;;6.03;;
13090;SDS011;6611;52.604;13.438;2023-08-06T07:30:27;7.13;;;6.40;;
13090;SDS011;6611;52.604;13.438;2023-08-06T07:35:28;7.13;;;6.43;;
13090;SDS011;6611;52.604;13.438;2023-08-06T07:40:31;7.43;;;6.73;;
13090;SDS011;6611;52.604;13.438;2023-08-06T07:45:33;7.33;;;6.53;;
13090;SDS011;6611;52.604;13.438;2023-08-06T07:50:36;7.30;;;6.60;;
13090;SDS011;6611;52.604;13.438;2023-08-06T07:55:39;7.07;;;6.37;;
13090;SDS011;6611;52.604;13.438;2023-08-06T08:00:40;6.80;;;6.00;;
13090;SDS011;6611;52.604;13.438;2023-08-06T08:05:45;6.70;;;6.10;;
13090;SDS011;6611;52.604;13.438;2023-08-06T08:10:48;7.80;;;7.10;;
13090;SDS011;6611;52.604;13.438;2023-08-06T08:15:50;7.43;;;6.73;;
13090;SDS011;6611;52.604;13.438;2023-08-06T08:20:58;9.17;;;8.27;;
13090;SDS011;6611;52.604;13.438;2023-08-06T08:26:01;8.63;;;7.83;;
13090;SDS011;6611;52.604;13.438;2023-08-06T08:31:03;8.80;;;7.90;;
13090;SDS011;6611;52.604;13.438;2023-08-06T08:36:09;8.80;;;8.00;;
13090;SDS011;6611;52.604;13.438;2023-08-06T08:41:12;9.63;;;8.00;;
13090;SDS011;6611;52.604;13.438;2023-08-06T08:46:14;12.60;;;9.27;;
13090;SDS011;6611;52.604;13.438;2023-08-06T08:51:16;10.30;;;9.27;;
13090;SDS011;6611;52.604;13.438;2023-08-06T08:56:20;10.30;;;9.33;;
13090;SDS011;6611;52.604;13.438;2023-08-06T09:01:21;11.53;;;9.67;;
13090;SDS011;6611;52.604;13.438;2023-08-06T09:06:23;11.53;;;10.33;;
13090;SDS011;6611;52.604;13.438;2023-08-06T09:11:28;10.47;;;9.47;;
13090;SDS011;6611;52.604;13.438;2023-08-06T09:16:39;10.63;;;9.63;;
13090;SDS011;6611;52.604;13.438;2023-08-06T09:21:41;10.40;;;9.40;;
13090;SDS011;6611;52.604;13.438;2023-08-06T09:26:45;10.57;;;9.33;;
13090;SDS011;6611;52.604;13.438;2023-08-06T09:31:47;10.83;;;9.73;;
13090;SDS011;6611;52.604;13.438;2023-08-06T09:36:52;10.17;;;9.17;;
13090;SDS011;6611;52.604;13.438;2023-08-06T09:41:56;9.00;;;8.03;;
13090;SDS011;6611;52.604;13.438;2023-08-06T09:46:59;6.27;;;5.67;;
13090;SDS011;6611;52.604;13.438;2023-08-06T09:52:02;6.37;;;5.77;;
13090;SDS011;6611;52.604;13.438;2023-08-06T09:57:07;7.73;;;6.70;;
13090;SDS011;6611;52.604;13.438;2023-08-06T10:02:11;6.00;;;5.37;;
13090;SDS011;6611;52.604;13.438;2023-08-06T10:07:14;5.27;;;4.77;;
13090;SDS011;6611;52.604;13.438;2023-08-06T10:12:20;5.53;;;4.90;;
13090;SDS011;6611;52.604;13.438;2023-08-06T10:17:25;5.77;;;5.20;;
13090;SDS011;6611;52.604;13.438;2023-08-06T10:22:27;5.27;;;4.73;;
13090;SDS011;6611;52.604;13.438;2023-08-06T10:27:30;6.37;;;5.77;;
13090;SDS011;6611;52.604;13.438;2023-08-06T10:37:50;6.53;;;5.93;;
13090;SDS011;6611;52.604;13.438;2023-08-06T10:42:53;6.63;;;5.87;;
13090;SDS011;6611;52.604;13.438;2023-08-06T10:47:55;6.53;;;5.93;;
13090;SDS011;6611;52.604;13.438;2023-08-06T10:52:57;5.63;;;5.07;;
13090;SDS011;6611;52.604;13.438;2023-08-06T10:58:06;6.50;;;5.90;;
13090;SDS011;6611;52.604;13.438;2023-08-06T11:03:07;6.80;;;6.20;;
13090;SDS011;6611;52.604;13.438;2023-08-06T11:08:09;5.90;;;5.30;;
13090;SDS011;6611;52.604;13.438;2023-08-06T11:13:12;6.77;;;6.07;;
13090;SDS011;6611;52.604;13.438;2023-08-06T11:18:18;6.93;;;6.33;;
13090;SDS011;6611;52.604;13.438;2023-08-06T11:23:20;7.47;;;6.23;;
13090;SDS011;6611;52.604;13.438;2023-08-06T11:28:23;6.57;;;5.87;;
13090;SDS011;6611;52.604;13.438;2023-08-06T11:33:25;6.40;;;5.80;;
13090;SDS011;6611;52.604;13.438;2023-08-06T11:38:28;6.67;;;6.00;;
13090;SDS011;6611;52.604;13.438;2023-08-06T11:43:31;6.90;;;6.37;;
13090;SDS011;6611;52.604;13.438;2023-08-06T11:48:45;6.20;;;5.70;;
13090;SDS011;6611;52.604;13.438;2023-08-06T11:53:55;7.07;;;6.40;;
13090;SDS011;6611;52.604;13.438;2023-08-06T11:58:59;7.77;;;5.97;;
13090;SDS011;6611;52.604;13.438;2023-08-06T12:04:02;6.87;;;6.17;;
13090;SDS011;6611;52.604;13.438;2023-08-06T12:09:05;7.37;;;6.67;;
13090;SDS011;6611;52.604;13.438;2023-08-06T12:14:08;7.43;;;6.40;;
13090;SDS011;6611;52.604;13.438;2023-08-06T12:19:10;6.83;;;6.23;;
13090;SDS011;6611;52.604;13.438;2023-08-06T12:24:11;7.43;;;6.73;;
13090;SDS011;6611;52.604;13.438;2023-08-06T12:29:14;7.23;;;6.47;;
13090;SDS011;6611;52.604;13.438;2023-08-06T12:34:16;7.33;;;6.63;;
13090;SDS011;6611;52.604;13.438;2023-08-06T12:39:18;7.70;;;6.97;;
13090;SDS011;6611;52.604;13.438;2023-08-06T12:44:21;7.27;;;6.27;;
13090;SDS011;6611;52.604;13.438;2023-08-06T12:49:22;6.73;;;6.03;;
13090;SDS011;6611;52.604;13.438;2023-08-06T12:54:25;7.00;;;6.33;;
13090;SDS011;6611;52.604;13.438;2023-08-06T12:59:28;6.77;;;6.07;;
13090;SDS011;6611;52.604;13.438;2023-08-06T13:04:30;7.93;;;6.90;;
13090;SDS011;6611;52.604;13.438;2023-08-06T13:09:34;6.63;;;5.90;;
13090;SDS011;6611;52.604;13.438;2023-08-06T13:14:37;7.27;;;6.43;;
13090;SDS011;6611;52.604;13.438;2023-08-06T13:19:38;6.93;;;6.20;;
13090;SDS011;6611;52.604;13.438;2023-08-06T13:24:40;7.20;;;6.47;;
13090;SDS011;6611;52.604;13.438;2023-08-06T13:29:43;6.17;;;5.57;;
13090;SDS011;6611;52.604;13.438;2023-08-06T13:34:45;6.27;;;5.60;;
13090;SDS011;6611;52.604;13.438;2023-08-06T13:39:46;8.20;;;4.50;;
13090;SDS011;6611;52.604;13.438;2023-08-06T13:44:49;5.00;;;3.60;;
13090;SDS011;6611;52.604;13.438;2023-08-06T13:49:51;4.37;;;3.97;;
13090;SDS011;6611;52.604;13.438;2023-08-06T13:54:53;5.60;;;4.20;;
13090;SDS011;6611;52.604;13.438;2023-08-06T13:59:56;3.77;;;3.47;;
13090;SDS011;6611;52.604;13.438;2023-08-06T14:04:58;4.93;;;4.10;;
13090;SDS011;6611;52.604;13.438;2023-08-06T14:09:59;5.20;;;3.77;;
13090;SDS011;6611;52.604;13.438;2023-08-06T14:15:02;4.43;;;3.23;;
13090;SDS011;6611;52.604;13.438;2023-08-06T14:20:05;3.43;;;3.13;;
13090;SDS011;6611;52.604;13.438;2023-08-06T14:25:11;3.80;;;2.80;;
13090;SDS011;6611;52.604;13.438;2023-08-06T14:30:14;3.23;;;2.93;;
13090;SDS011;6611;52.604;13.438;2023-08-06T14:35:16;4.77;;;3.13;;
13090;SDS011;6611;52.604;13.438;2023-08-06T14:40:18;4.70;;;3.23;;
13090;SDS011;6611;52.604;13.438;2023-08-06T14:45:21;4.87;;;3.50;;
13090;SDS011;6611;52.604;13.438;2023-08-06T14:50:23;3.40;;;3.10;;
13090;SDS011;6611;52.604;13.438;2023-08-06T14:55:24;3.53;;;3.23;;
13090;SDS011;6611;52.604;13.438;2023-08-06T15:00:28;4.00;;;3.17;;
13090;SDS011;6611;52.604;13.438;2023-08-06T15:05:30;5.77;;;3.50;;
13090;SDS011;6611;52.604;13.438;2023-08-06T15:10:31;4.87;;;3.20;;
13090;SDS011;6611;52.604;13.438;2023-08-06T15:15:34;3.80;;;3.40;;
13090;SDS011;6611;52.604;13.438;2023-08-06T15:20:39;3.67;;;3.37;;
13090;SDS011;6611;52.604;13.438;2023-08-06T15:25:41;3.70;;;3.30;;
13090;SDS011;6611;52.604;13.438;2023-08-06T15:30:45;4.23;;;3.20;;
13090;SDS011;6611;52.604;13.438;2023-08-06T15:35:50;3.43;;;3.00;;
13090;SDS011;6611;52.604;13.438;2023-08-06T15:40:51;4.13;;;3.73;;
13090;SDS011;6611;52.604;13.438;2023-08-06T15:45:54;6.00;;;3.60;;
13090;SDS011;6611;52.604;13.438;2023-08-06T15:50:56;3.60;;;3.30;;
13090;SDS011;6611;52.604;13.438;2023-08-06T15:55:58;5.13;;;3.30;;
13090;SDS011;6611;52.604;13.438;2023-08-06T16:01:01;4.80;;;3.47;;
13090;SDS011;6611;52.604;13.438;2023-08-06T16:06:03;4.13;;;3.53;;
13090;SDS011;6611;52.604;13.438;2023-08-06T16:11:04;3.53;;;2.87;;
13090;SDS011;6611;52.604;13.438;2023-08-06T16:16:08;3.90;;;3.17;;
13090;SDS011;6611;52.604;13.438;2023-08-06T16:21:10;3.80;;;3.17;;
13090;SDS011;6611;52.604;13.438;2023-08-06T16:26:12;3.47;;;2.57;;
13090;SDS011;6611;52.604;13.438;2023-08-06T16:31:15;2.93;;;2.27;;
13090;SDS011;6611;52.604;13.438;2023-08-06T16:36:16;3.67;;;1.87;;
13090;SDS011;6611;52.604;13.438;2023-08-06T16:41:18;3.03;;;2.07;;
13090;SDS011;6611;52.604;13.438;2023-08-06T16:46:21;2.63;;;2.10;;
13090;SDS011;6611;52.604;13.438;2023-08-06T16:51:23;3.73;;;2.13;;
13090;SDS011;6611;52.604;13.438;2023-08-06T16:56:24;4.10;;;2.63;;
13090;SDS011;6611;52.604;13.438;2023-08-06T17:01:27;3.33;;;2.10;;
13090;SDS011;6611;52.604;13.438;2023-08-06T17:06:29;2.53;;;1.90;;
13090;SDS011;6611;52.604;13.438;2023-08-06T17:11:31;4.67;;;2.20;;
13090;SDS011;6611;52.604;13.438;2023-08-06T17:16:34;2.60;;;2.30;;
13090;SDS011;6611;52.604;13.438;2023-08-06T17:21:36;3.80;;;2.50;;
13090;SDS011;6611;52.604;13.438;2023-08-06T17:26:38;5.10;;;2.80;;
13090;SDS011;6611;52.604;13.438;2023-08-06T17:31:41;3.03;;;2.30;;
13090;SDS011;6611;52.604;13.438;2023-08-06T17:36:42;2.33;;;2.13;;
13090;SDS011;6611;52.604;13.438;2023-08-06T17:41:44;2.77;;;2.30;;
13090;SDS011;6611;52.604;13.438;2023-08-06T17:46:48;2.77;;;2.40;;
13090;SDS011;6611;52.604;13.438;2023-08-06T17:51:50;2.83;;;1.83;;
13090;SDS011;6611;52.604;13.438;2023-08-06T17:56:51;3.27;;;2.13;;
13090;SDS011;6611;52.604;13.438;2023-08-06T18:01:54;2.50;;;2.30;;
13090;SDS011;6611;52.604;13.438;2023-08-06T18:06:56;2.57;;;2.37;;
13090;SDS011;6611;52.604;13.438;2023-08-06T18:11:58;3.20;;;2.50;;
13090;SDS011;6611;52.604;13.438;2023-08-06T18:17:01;2.50;;;2.30;;
13090;SDS011;6611;52.604;13.438;2023-08-06T18:22:03;3.10;;;2.50;;
13090;SDS011;6611;52.604;13.438;2023-08-06T18:27:05;3.93;;;2.47;;
13090;SDS011;6611;52.604;13.438;2023-08-06T18:32:08;3.00;;;2.57;;
13090;SDS011;6611;52.604;13.438;2023-08-06T18:37:10;2.83;;;2.20;;
13090;SDS011;6611;52.604;13.438;2023-08-06T18:42:11;4.10;;;2.27;;
13090;SDS011;6611;52.604;13.438;2023-08-06T18:47:14;3.10;;;2.27;;
13090;SDS011;6611;52.604;13.438;2023-08-06T18:52:16;3.30;;;2.23;;
13090;SDS011;6611;52.604;13.438;2023-08-06T18:57:18;2.73;;;2.50;;
13090;SDS011;6611;52.604;13.438;2023-08-06T19:02:22;3.70;;;2.70;;
13090;SDS011;6611;52.604;13.438;2023-08-06T19:07:24;3.20;;;2.70;;
13090;SDS011;6611;52.604;13.438;2023-08-06T19:12:26;3.93;;;2.87;;
13090;SDS011;6611;52.604;13.438;2023-08-06T19:17:29;3.23;;;2.60;;
13090;SDS011;6611;52.604;13.438;2023-08-06T19:22:32;4.53;;;2.83;;
13090;SDS011;6611;52.604;13.438;2023-08-06T19:27:33;3.37;;;2.77;;
13090;SDS011;6611;52.604;13.438;2023-08-06T19:32:37;4.10;;;2.57;;
13090;SDS011;6611;52.604;13.438;2023-08-06T19:37:38;3.87;;;2.60;;
13090;SDS011;6611;52.604;13.438;2023-08-06T19:42:40;3.70;;;2.70;;
13090;SDS011;6611;52.604;13.438;2023-08-06T19:47:43;3.17;;;2.57;;
13090;SDS011;6611;52.604;13.438;2023-08-06T19:52:45;2.93;;;2.40;;
13090;SDS011;6611;52.604;13.438;2023-08-06T19:57:46;5.20;;;2.57;;
13090;SDS011;6611;52.604;13.438;2023-08-06T20:02:49;2.60;;;2.40;;
13090;SDS011;6611;52.604;13.438;2023-08-06T20:07:51;2.97;;;2.40;;
13090;SDS011;6611;52.604;13.438;2023-08-06T20:12:53;3.70;;;2.83;;
13090;SDS011;6611;52.604;13.438;2023-08-06T20:17:56;4.97;;;2.90;;
13090;SDS011;6611;52.604;13.438;2023-08-06T20:22:58;5.27;;;3.33;;
13090;SDS011;6611;52.604;13.438;2023-08-06T20:27:59;4.00;;;2.90;;
13090;SDS011;6611;52.604;13.438;2023-08-06T20:33:03;3.37;;;2.80;;
13090;SDS011;6611;52.604;13.438;2023-08-06T20:38:04;3.60;;;2.93;;
13090;SDS011;6611;52.604;13.438;2023-08-06T20:43:06;4.70;;;2.53;;
13090;SDS011;6611;52.604;13.438;2023-08-06T20:48:09;2.80;;;2.30;;
13090;SDS011;6611;52.604;13.438;2023-08-06T20:53:10;2.53;;;2.10;;
13090;SDS011;6611;52.604;13.438;2023-08-06T20:58:12;5.07;;;2.37;;
13090;SDS011;6611;52.604;13.438;2023-08-06T21:03:15;2.53;;;1.90;;
13090;SDS011;6611;52.604;13.438;2023-08-06T21:08:17;2.47;;;2.17;;
13090;SDS011;6611;52.604;13.438;2023-08-06T21:13:19;3.33;;;1.83;;
13090;SDS011;6611;52.604;13.438;2023-08-06T21:18:22;6.50;;;2.73;;
13090;SDS011;6611;52.604;13.438;2023-08-06T21:23:23;2.27;;;1.73;;
13090;SDS011;6611;52.604;13.438;2023-08-06T21:28:26;2.57;;;1.97;;
13090;SDS011;6611;52.604;13.438;2023-08-06T21:33:32;2.67;;;1.77;;
13090;SDS011;6611;52.604;13.438;2023-08-06T21:38:35;3.27;;;1.90;;
13090;SDS011;6611;52.604;13.438;2023-08-06T21:43:38;4.03;;;1.90;;
13090;SDS011;6611;52.604;13.438;2023-08-06T21:48:43;3.43;;;1.70;;
13090;SDS011;6611;52.604;13.438;2023-08-06T21:53:46;2.57;;;1.73;;
13090;SDS011;6611;52.604;13.438;2023-08-06T21:58:49;1.70;;;1.60;;
13090;SDS011;6611;52.604;13.438;2023-08-06T22:03:53;2.97;;;1.80;;
13090;SDS011;6611;52.604;13.438;2023-08-06T22:08:56;1.70;;;1.47;;
13090;SDS011;6611;52.604;13.438;2023-08-06T22:13:57;2.43;;;1.70;;
13090;SDS011;6611;52.604;13.438;2023-08-06T22:19:01;2.17;;;1.80;;
13090;SDS011;6611;52.604;13.438;2023-08-06T22:24:03;2.17;;;1.80;;
13090;SDS011;6611;52.604;13.438;2023-08-06T22:29:05;2.70;;;1.80;;
13090;SDS011;6611;52.604;13.438;2023-08-06T22:34:08;1.73;;;1.60;;
13090;SDS011;6611;52.604;13.438;2023-08-06T22:39:09;3.17;;;1.93;;
13090;SDS011;6611;52.604;13.438;2023-08-06T22:44:11;2.10;;;1.70;;
13090;SDS011;6611;52.604;13.438;2023-08-06T22:49:14;2.17;;;1.90;;
13090;SDS011;6611;52.604;13.438;2023-08-06T22:54:16;3.13;;;2.37;;
13090;SDS011;6611;52.604;13.438;2023-08-06T22:59:17;2.90;;;2.27;;
13090;SDS011;6611;52.604;13.438;2023-08-06T23:04:20;4.07;;;1.97;;
13090;SDS011;6611;52.604;13.438;2023-08-06T23:09:22;3.60;;;2.30;;
13090;SDS011;6611;52.604;13.438;2023-08-06T23:14:24;3.37;;;2.17;;
13090;SDS011;6611;52.604;13.438;2023-08-06T23:19:28;2.70;;;2.20;;
13090;SDS011;6611;52.604;13.438;2023-08-06T23:24:30;3.23;;;2.37;;
13090;SDS011;6611;52.604;13.438;2023-08-06T23:29:31;3.13;;;2.53;;
13090;SDS011;6611;52.604;13.438;2023-08-06T23:34:34;3.70;;;2.23;;
13090;SDS011;6611;52.604;13.438;2023-08-06T23:39:36;2.83;;;2.07;;
13090;SDS011;6611;52.604;13.438;2023-08-06T23:44:38;2.20;;;1.80;;
13090;SDS011;6611;52.604;13.438;2023-08-06T23:49:41;1.90;;;1.73;;
13090;SDS011;6611;52.604;13.438;2023-08-06T23:54:43;2.27;;;1.87;;
13090;SDS011;6611;52.604;13.438;2023-08-06T23:59:44;2.43;;;2.10;;
